createdAt,value
2017-07-03T00:01:00.379Z,17.70
2017-07-03T00:03:27.806Z,17.60
2017-07-03T00:05:55.256Z,17.50
2017-07-03T00:08:22.673Z,17.50
2017-07-03T00:10:50.890Z,17.40
2017-07-03T00:13:18.313Z,17.30
2017-07-03T00:15:45.745Z,17.30
2017-07-03T00:18:13.187Z,17.30
2017-07-03T00:20:40.619Z,17.30
2017-07-03T00:23:08.133Z,17.30
2017-07-03T00:25:35.573Z,17.40
2017-07-03T00:28:03.008Z,17.30
2017-07-03T00:30:30.447Z,17.30
2017-07-03T00:32:57.885Z,17.30
2017-07-03T00:35:25.309Z,17.30
2017-07-03T00:37:52.752Z,17.30
2017-07-03T00:40:20.187Z,17.40
2017-07-03T00:42:47.627Z,17.30
2017-07-03T00:45:15.056Z,17.20
2017-07-03T00:47:42.479Z,17.20
2017-07-03T00:50:12.107Z,17.10
2017-07-03T00:52:39.609Z,17.10
2017-07-03T00:55:07.072Z,17.00
2017-07-03T00:57:34.509Z,16.90
2017-07-03T01:00:02.731Z,16.70
2017-07-03T01:02:30.220Z,16.70
2017-07-03T01:04:58.434Z,16.40
2017-07-03T01:07:25.900Z,16.40
2017-07-03T01:09:53.337Z,16.30
2017-07-03T01:12:20.776Z,16.30
2017-07-03T01:14:48.208Z,16.20
2017-07-03T01:17:15.664Z,16.10
2017-07-03T01:19:43.101Z,16.20
2017-07-03T01:22:10.544Z,16.10
2017-07-03T01:24:37.985Z,16.10
2017-07-03T01:27:05.428Z,16.10
2017-07-03T01:29:32.956Z,16.10
2017-07-03T01:32:00.397Z,16.10
2017-07-03T01:34:27.831Z,16.20
2017-07-03T01:36:55.264Z,16.10
2017-07-03T01:39:22.721Z,16.10
2017-07-03T01:41:50.157Z,16.10
2017-07-03T01:44:17.600Z,16.10
2017-07-03T01:46:45.049Z,16.10
2017-07-03T01:49:12.492Z,16.20
2017-07-03T01:51:39.944Z,16.10
2017-07-03T01:54:07.392Z,16.20
2017-07-03T01:56:34.823Z,16.20
2017-07-03T01:59:02.264Z,16.20
2017-07-03T02:01:29.705Z,16.20
2017-07-03T02:03:57.145Z,16.20
2017-07-03T02:06:24.601Z,16.20
2017-07-03T02:08:52.036Z,16.30
2017-07-03T02:11:19.488Z,16.30
2017-07-03T02:13:46.929Z,16.30
2017-07-03T02:16:14.374Z,16.30
2017-07-03T02:18:41.805Z,16.30
2017-07-03T02:21:09.240Z,16.30
2017-07-03T02:23:36.677Z,16.20
2017-07-03T02:26:04.116Z,16.20
2017-07-03T02:28:31.583Z,16.30
2017-07-03T02:30:59.020Z,16.30
2017-07-03T02:33:26.467Z,16.30
2017-07-03T02:35:53.902Z,16.40
2017-07-03T02:38:21.344Z,16.40
2017-07-03T02:40:48.779Z,16.50
2017-07-03T02:43:16.207Z,16.50
2017-07-03T02:45:44.360Z,16.40
2017-07-03T02:48:11.791Z,16.50
2017-07-03T02:50:39.245Z,16.50
2017-07-03T02:53:06.682Z,16.50
2017-07-03T02:55:34.198Z,16.50
2017-07-03T02:58:01.625Z,16.50
2017-07-03T03:00:29.051Z,16.60
2017-07-03T03:02:56.496Z,16.60
2017-07-03T03:05:23.928Z,16.60
2017-07-03T03:07:51.371Z,16.60
2017-07-03T03:10:18.814Z,16.60
2017-07-03T03:12:46.248Z,16.60
2017-07-03T03:15:13.684Z,16.60
2017-07-03T03:17:41.125Z,16.50
2017-07-03T03:20:08.564Z,16.60
2017-07-03T03:22:35.996Z,16.60
2017-07-03T03:25:03.451Z,16.60
2017-07-03T03:27:30.886Z,16.60
2017-07-03T03:29:58.329Z,16.60
2017-07-03T03:32:25.763Z,16.60
2017-07-03T03:34:53.216Z,16.60
2017-07-03T03:37:20.646Z,16.60
2017-07-03T03:39:48.088Z,16.60
2017-07-03T03:42:15.520Z,16.60
2017-07-03T03:44:43.732Z,16.70
2017-07-03T03:47:11.175Z,16.70
2017-07-03T03:49:38.609Z,16.60
2017-07-03T03:52:06.088Z,16.60
2017-07-03T03:54:33.521Z,16.60
2017-07-03T03:57:00.965Z,16.70
2017-07-03T03:59:28.405Z,16.70
2017-07-03T04:01:55.858Z,16.70
2017-07-03T04:04:23.279Z,16.80
2017-07-03T04:06:50.729Z,16.70
2017-07-03T04:09:18.160Z,16.70
2017-07-03T04:11:45.605Z,16.80
2017-07-03T04:14:13.047Z,16.70
2017-07-03T04:16:40.501Z,16.80
2017-07-03T04:19:07.928Z,16.80
2017-07-03T04:21:35.368Z,16.90
2017-07-03T04:24:02.835Z,16.90
2017-07-03T04:26:30.376Z,17.00
2017-07-03T04:28:58.248Z,17.00
2017-07-03T04:31:25.672Z,17.10
2017-07-03T04:33:53.121Z,17.20
2017-07-03T04:36:21.323Z,17.30
2017-07-03T04:38:48.769Z,17.30
2017-07-03T04:41:16.201Z,17.30
2017-07-03T04:43:43.652Z,17.40
2017-07-03T04:46:11.092Z,17.40
2017-07-03T04:48:38.525Z,17.40
2017-07-03T04:51:05.960Z,17.50
2017-07-03T04:53:33.396Z,17.50
2017-07-03T04:56:01.609Z,17.60
2017-07-03T04:58:29.034Z,17.60
2017-07-03T05:00:56.526Z,17.60
2017-07-03T05:03:23.959Z,17.60
2017-07-03T05:05:51.392Z,17.70
2017-07-03T05:08:18.829Z,17.70
2017-07-03T05:10:46.281Z,17.80
2017-07-03T05:13:13.736Z,17.80
2017-07-03T05:15:41.187Z,17.80
2017-07-03T05:18:09.414Z,17.90
2017-07-03T05:20:36.848Z,17.90
2017-07-03T05:23:04.288Z,18.00
2017-07-03T05:25:31.824Z,18.00
2017-07-03T05:27:59.256Z,18.00
2017-07-03T05:30:26.688Z,18.00
2017-07-03T05:32:54.127Z,18.10
2017-07-03T05:35:21.576Z,18.10
2017-07-03T05:37:49.036Z,18.00
2017-07-03T05:40:16.469Z,18.00
2017-07-03T05:42:49.532Z,18.10
2017-07-03T05:45:16.961Z,18.10
2017-07-03T05:47:44.378Z,18.10
2017-07-03T05:50:11.825Z,18.20
2017-07-03T05:52:39.260Z,18.30
2017-07-03T05:55:06.700Z,18.50
2017-07-03T05:57:34.136Z,18.50
2017-07-03T06:00:01.625Z,18.70
2017-07-03T06:02:29.064Z,18.80
2017-07-03T06:04:57.284Z,19.00
2017-07-03T06:07:24.767Z,19.00
2017-07-03T06:09:52.955Z,19.20
2017-07-03T06:12:20.391Z,19.20
2017-07-03T06:14:47.829Z,19.40
2017-07-03T06:17:15.256Z,19.40
2017-07-03T06:19:43.170Z,19.40
2017-07-03T06:22:10.615Z,19.40
2017-07-03T06:24:38.039Z,19.30
2017-07-03T06:27:05.501Z,19.30
2017-07-03T06:29:32.924Z,19.30
2017-07-03T06:32:00.360Z,19.20
2017-07-03T06:34:27.793Z,19.20
2017-07-03T06:36:55.221Z,19.20
2017-07-03T06:39:22.685Z,19.30
2017-07-03T06:41:50.109Z,19.50
2017-07-03T06:44:17.545Z,19.90
2017-07-03T06:46:45.030Z,20.10
2017-07-03T06:49:12.473Z,20.30
2017-07-03T06:51:39.900Z,20.40
2017-07-03T06:54:07.335Z,20.50
2017-07-03T06:56:34.783Z,20.70
2017-07-03T06:59:02.210Z,21.00
2017-07-03T07:01:30.016Z,21.00
2017-07-03T07:03:57.449Z,20.90
2017-07-03T07:06:24.887Z,20.80
2017-07-03T07:08:52.328Z,20.70
2017-07-03T07:11:19.787Z,20.60
2017-07-03T07:13:47.216Z,20.30
2017-07-03T07:16:14.667Z,20.20
2017-07-03T07:18:42.106Z,20.20
2017-07-03T07:21:09.531Z,20.30
2017-07-03T07:23:36.970Z,20.50
2017-07-03T07:26:04.476Z,20.80
2017-07-03T07:28:32.822Z,21.10
2017-07-03T07:31:01.019Z,21.30
2017-07-03T07:33:28.473Z,21.20
2017-07-03T07:35:55.904Z,21.50
2017-07-03T07:38:23.355Z,22.10
2017-07-03T07:40:50.784Z,22.80
2017-07-03T07:43:18.212Z,23.30
2017-07-03T07:45:45.654Z,23.60
2017-07-03T07:48:13.079Z,24.00
2017-07-03T07:50:41.287Z,24.70
2017-07-03T07:53:08.722Z,24.60
2017-07-03T07:55:36.155Z,24.70
2017-07-03T07:58:03.583Z,24.50
2017-07-03T08:00:31.055Z,24.90
2017-07-03T08:02:58.497Z,25.40
2017-07-03T08:05:25.937Z,25.00
2017-07-03T08:07:53.372Z,24.50
2017-07-03T08:10:20.813Z,24.20
2017-07-03T08:12:48.245Z,23.60
2017-07-03T08:15:15.712Z,23.30
2017-07-03T08:17:43.145Z,22.90
2017-07-03T08:20:10.597Z,22.90
2017-07-03T08:22:38.027Z,23.10
2017-07-03T08:25:05.464Z,23.50
2017-07-03T08:27:32.904Z,24.40
2017-07-03T08:30:00.331Z,24.60
2017-07-03T08:32:27.767Z,24.90
2017-07-03T08:34:55.200Z,25.00
2017-07-03T08:37:23.404Z,25.00
2017-07-03T08:39:50.880Z,25.00
2017-07-03T08:42:18.320Z,25.40
2017-07-03T08:44:45.752Z,25.80
2017-07-03T08:47:13.204Z,26.20
2017-07-03T08:49:40.619Z,26.80
2017-07-03T08:52:08.058Z,26.70
2017-07-03T08:54:35.504Z,26.60
2017-07-03T08:57:02.936Z,26.20
2017-07-03T08:59:30.376Z,25.80
2017-07-03T09:01:57.808Z,25.40
2017-07-03T09:04:25.259Z,24.80
2017-07-03T09:06:52.701Z,24.60
2017-07-03T09:09:20.148Z,24.40
2017-07-03T09:11:47.581Z,24.30
2017-07-03T09:14:15.042Z,24.30
2017-07-03T09:16:42.472Z,25.30
2017-07-03T09:19:09.897Z,26.00
2017-07-03T09:21:37.336Z,26.80
2017-07-03T09:24:04.768Z,27.50
2017-07-03T09:26:32.964Z,28.10
2017-07-03T09:29:00.399Z,28.10
2017-07-03T09:31:27.847Z,28.00
2017-07-03T09:33:55.290Z,27.50
2017-07-03T09:36:22.748Z,26.60
2017-07-03T09:38:50.182Z,26.10
2017-07-03T09:41:17.624Z,25.70
2017-07-03T09:43:45.073Z,25.40
2017-07-03T09:46:12.504Z,25.60
2017-07-03T09:48:39.931Z,26.10
2017-07-03T09:51:07.403Z,26.40
2017-07-03T09:53:34.820Z,27.20
2017-07-03T09:56:02.252Z,27.50
2017-07-03T09:58:29.746Z,27.50
2017-07-03T10:00:57.257Z,27.10
2017-07-03T10:03:24.708Z,26.70
2017-07-03T10:05:52.139Z,26.30
2017-07-03T10:08:19.577Z,25.70
2017-07-03T10:10:47.012Z,25.40
2017-07-03T10:13:14.528Z,26.20
2017-07-03T10:15:42.063Z,27.20
2017-07-03T10:18:09.552Z,28.00
2017-07-03T10:20:36.992Z,28.70
2017-07-03T10:23:04.440Z,29.20
2017-07-03T10:25:32.673Z,28.70
2017-07-03T10:28:00.891Z,29.90
2017-07-03T10:30:28.323Z,29.90
2017-07-03T10:32:55.757Z,29.90
2017-07-03T10:35:23.201Z,29.70
2017-07-03T10:37:50.627Z,28.70
2017-07-03T10:40:18.087Z,28.30
2017-07-03T10:42:45.513Z,27.60
2017-07-03T10:45:13.844Z,27.30
2017-07-03T10:47:42.364Z,28.20
2017-07-03T10:50:09.836Z,28.20
2017-07-03T10:52:38.051Z,28.40
2017-07-03T10:55:05.543Z,28.10
2017-07-03T10:57:32.967Z,27.70
2017-07-03T11:00:00.425Z,27.10
2017-07-03T11:02:28.896Z,26.50
2017-07-03T11:04:56.341Z,26.30
2017-07-03T11:07:23.764Z,26.00
2017-07-03T11:09:51.192Z,25.80
2017-07-03T11:12:18.640Z,25.80
2017-07-03T11:14:46.101Z,25.70
2017-07-03T11:17:13.543Z,25.70
2017-07-03T11:19:40.968Z,25.70
2017-07-03T11:22:08.400Z,25.60
2017-07-03T11:24:35.881Z,25.40
2017-07-03T11:27:04.100Z,25.00
2017-07-03T11:29:31.538Z,25.00
2017-07-03T11:31:58.993Z,24.80
2017-07-03T11:34:26.421Z,24.60
2017-07-03T11:36:53.851Z,24.50
2017-07-03T11:39:21.292Z,24.20
2017-07-03T11:41:48.724Z,24.20
2017-07-03T11:44:16.163Z,24.10
2017-07-03T11:46:44.363Z,24.10
2017-07-03T11:49:11.805Z,24.10
2017-07-03T11:51:39.237Z,24.20
2017-07-03T11:54:06.799Z,24.30
2017-07-03T11:56:34.225Z,24.50
2017-07-03T11:59:01.785Z,24.60
2017-07-03T12:01:29.203Z,24.50
2017-07-03T12:03:56.631Z,24.40
2017-07-03T12:06:24.073Z,24.40
2017-07-03T12:08:51.501Z,24.30
2017-07-03T12:11:19.733Z,24.30
2017-07-03T12:13:47.160Z,24.30
2017-07-03T12:16:14.603Z,24.20
2017-07-03T12:18:42.026Z,24.00
2017-07-03T12:21:09.500Z,24.00
2017-07-03T12:23:36.929Z,24.20
2017-07-03T12:26:04.777Z,24.40
2017-07-03T12:28:32.197Z,24.50
2017-07-03T12:30:59.639Z,24.60
2017-07-03T12:33:27.085Z,24.70
2017-07-03T12:35:54.546Z,24.70
2017-07-03T12:38:21.973Z,24.70
2017-07-03T12:40:49.404Z,24.90
2017-07-03T12:43:16.866Z,25.00
2017-07-03T12:45:44.295Z,24.90
2017-07-03T12:48:11.781Z,25.00
2017-07-03T12:50:39.227Z,25.30
2017-07-03T12:53:06.664Z,25.30
2017-07-03T12:55:34.338Z,25.50
2017-07-03T12:58:01.768Z,25.70
2017-07-03T13:00:29.207Z,25.70
2017-07-03T13:02:56.709Z,25.80
2017-07-03T13:05:24.165Z,25.80
2017-07-03T13:07:51.609Z,25.70
2017-07-03T13:10:19.044Z,25.60
2017-07-03T13:12:46.504Z,25.60
2017-07-03T13:15:14.792Z,25.60
2017-07-03T13:17:42.219Z,25.70
2017-07-03T13:20:09.656Z,25.60
2017-07-03T13:22:37.121Z,25.50
2017-07-03T13:25:05.390Z,25.60
2017-07-03T13:27:33.588Z,25.60
2017-07-03T13:30:01.036Z,25.60
2017-07-03T13:32:28.489Z,25.70
2017-07-03T13:34:55.936Z,25.60
2017-07-03T13:37:23.363Z,25.50
2017-07-03T13:39:50.809Z,25.60
2017-07-03T13:42:18.269Z,25.40
2017-07-03T13:44:45.698Z,25.40
2017-07-03T13:47:13.133Z,25.30
2017-07-03T13:49:40.646Z,25.40
2017-07-03T13:52:08.864Z,25.50
2017-07-03T13:54:36.302Z,25.50
2017-07-03T13:57:03.760Z,25.60
2017-07-03T13:59:31.189Z,25.60
2017-07-03T14:01:58.627Z,25.50
2017-07-03T14:04:26.685Z,25.30
2017-07-03T14:06:54.128Z,25.00
2017-07-03T14:09:21.573Z,24.80
2017-07-03T14:11:49.016Z,24.70
2017-07-03T14:14:16.448Z,24.70
2017-07-03T14:16:43.911Z,24.80
2017-07-03T14:19:11.347Z,24.80
2017-07-03T14:21:38.781Z,25.00
2017-07-03T14:24:06.222Z,25.00
2017-07-03T14:26:33.662Z,24.90
2017-07-03T14:29:01.115Z,24.90
2017-07-03T14:31:28.543Z,24.90
2017-07-03T14:33:55.980Z,25.00
2017-07-03T14:36:23.415Z,25.10
2017-07-03T14:38:50.852Z,25.10
2017-07-03T14:41:18.275Z,25.20
2017-07-03T14:43:45.708Z,25.10
2017-07-03T14:46:13.907Z,24.90
2017-07-03T14:48:41.338Z,24.90
2017-07-03T14:51:09.750Z,24.60
2017-07-03T14:53:37.170Z,24.60
2017-07-03T14:56:04.604Z,24.60
2017-07-03T14:58:32.046Z,24.50
2017-07-03T15:00:59.492Z,24.60
2017-07-03T15:03:26.912Z,24.70
2017-07-03T15:05:54.359Z,24.70
2017-07-03T15:08:21.804Z,24.50
2017-07-03T15:10:49.224Z,24.50
2017-07-03T15:13:16.675Z,24.60
2017-07-03T15:15:44.095Z,24.40
2017-07-03T15:18:12.304Z,24.30
2017-07-03T15:20:39.741Z,24.30
2017-07-03T15:23:07.224Z,24.30
2017-07-03T15:25:34.659Z,24.20
2017-07-03T15:28:02.100Z,24.30
2017-07-03T15:30:29.537Z,24.40
2017-07-03T15:32:57.128Z,24.40
2017-07-03T15:35:24.568Z,24.50
2017-07-03T15:37:52.039Z,24.60
2017-07-03T15:40:19.506Z,24.60
2017-07-03T15:42:46.979Z,24.60
2017-07-03T15:45:15.184Z,24.50
2017-07-03T15:47:42.642Z,24.60
2017-07-03T15:50:10.098Z,24.60
2017-07-03T15:52:37.548Z,24.50
2017-07-03T15:55:04.980Z,24.40
2017-07-03T15:57:32.460Z,24.40
2017-07-03T16:00:00.673Z,24.50
2017-07-03T16:02:28.110Z,24.50
2017-07-03T16:04:55.550Z,24.60
2017-07-03T16:07:22.986Z,24.50
2017-07-03T16:09:50.417Z,24.60
2017-07-03T16:12:17.869Z,24.50
2017-07-03T16:14:45.370Z,24.40
2017-07-03T16:17:13.573Z,24.30
2017-07-03T16:19:41.136Z,24.20
2017-07-03T16:22:08.590Z,24.10
2017-07-03T16:24:36.033Z,24.10
2017-07-03T16:27:03.461Z,24.10
2017-07-03T16:29:30.916Z,24.00
2017-07-03T16:31:58.382Z,24.00
2017-07-03T16:34:25.768Z,23.90
2017-07-03T16:36:53.211Z,23.90
2017-07-03T16:39:20.645Z,23.80
2017-07-03T16:41:48.088Z,23.80
2017-07-03T16:44:15.575Z,23.80
2017-07-03T16:46:43.008Z,23.90
2017-07-03T16:49:10.474Z,23.90
2017-07-03T16:51:37.927Z,23.90
2017-07-03T16:54:05.343Z,23.90
2017-07-03T16:56:32.787Z,23.90
2017-07-03T16:59:00.203Z,23.90
2017-07-03T17:01:27.652Z,23.90
2017-07-03T17:03:55.076Z,23.90
2017-07-03T17:06:22.555Z,23.90
2017-07-03T17:08:49.987Z,23.90
2017-07-03T17:11:17.428Z,23.90
2017-07-03T17:13:44.863Z,23.90
2017-07-03T17:16:12.302Z,23.90
2017-07-03T17:18:39.748Z,23.80
2017-07-03T17:21:07.195Z,23.80
2017-07-03T17:23:34.627Z,23.70
2017-07-03T17:26:02.056Z,23.70
2017-07-03T17:28:29.487Z,23.70
2017-07-03T17:30:56.924Z,23.70
2017-07-03T17:33:24.372Z,23.60
2017-07-03T17:35:51.787Z,23.60
2017-07-03T17:38:19.994Z,23.40
2017-07-03T17:40:47.415Z,23.40
2017-07-03T17:43:14.856Z,23.40
2017-07-03T17:45:42.286Z,23.30
2017-07-03T17:48:10.489Z,23.30
2017-07-03T17:50:37.916Z,23.30
2017-07-03T17:53:05.372Z,23.30
2017-07-03T17:55:32.805Z,23.30
2017-07-03T17:58:00.244Z,23.30
2017-07-03T18:00:27.667Z,23.30
2017-07-03T18:02:55.099Z,23.30
2017-07-03T18:05:23.307Z,23.20
2017-07-03T18:07:50.747Z,23.20
2017-07-03T18:10:18.188Z,23.20
2017-07-03T18:12:46.145Z,23.10
2017-07-03T18:15:13.591Z,23.10
2017-07-03T18:17:41.043Z,23.10
2017-07-03T18:20:08.456Z,23.00
2017-07-03T18:22:35.913Z,23.10
2017-07-03T18:25:03.340Z,23.00
2017-07-03T18:27:30.794Z,23.00
2017-07-03T18:29:58.227Z,23.00
2017-07-03T18:32:25.675Z,22.90
2017-07-03T18:34:53.113Z,23.00
2017-07-03T18:37:20.547Z,22.90
2017-07-03T18:39:47.983Z,22.90
2017-07-03T18:42:15.453Z,22.90
2017-07-03T18:44:42.888Z,23.00
2017-07-03T18:47:10.332Z,23.00
2017-07-03T18:49:37.763Z,23.00
2017-07-03T18:52:05.201Z,22.90
2017-07-03T18:54:32.669Z,22.90
2017-07-03T18:57:00.140Z,22.90
2017-07-03T18:59:27.577Z,22.80
2017-07-03T19:01:55.004Z,22.80
2017-07-03T19:04:22.441Z,22.70
2017-07-03T19:06:49.872Z,22.70
2017-07-03T19:09:17.331Z,22.70
2017-07-03T19:11:44.770Z,22.70
2017-07-03T19:14:12.208Z,22.60
2017-07-03T19:16:39.642Z,22.60
2017-07-03T19:19:07.131Z,22.50
2017-07-03T19:21:34.560Z,22.50
2017-07-03T19:24:01.997Z,22.50
2017-07-03T19:26:29.432Z,22.40
2017-07-03T19:28:56.881Z,22.40
2017-07-03T19:31:24.316Z,22.40
2017-07-03T19:33:51.756Z,22.30
2017-07-03T19:36:19.237Z,22.30
2017-07-03T19:38:46.759Z,22.20
2017-07-03T19:41:14.196Z,22.20
2017-07-03T19:43:41.640Z,22.20
2017-07-03T19:46:09.089Z,22.20
2017-07-03T19:48:36.524Z,22.20
2017-07-03T19:51:03.952Z,22.20
2017-07-03T19:53:31.376Z,22.20
2017-07-03T19:55:58.808Z,22.20
2017-07-03T19:58:26.266Z,22.10
2017-07-03T20:00:53.728Z,22.20
2017-07-03T20:03:21.173Z,22.10
2017-07-03T20:05:48.603Z,22.10
2017-07-03T20:08:16.045Z,22.20
2017-07-03T20:10:43.472Z,22.10
2017-07-03T20:13:10.926Z,22.20
2017-07-03T20:15:38.360Z,22.20
2017-07-03T20:18:05.821Z,22.20
2017-07-03T20:20:33.254Z,22.10
2017-07-03T20:23:00.688Z,22.10
2017-07-03T20:25:28.380Z,22.10
2017-07-03T20:27:55.806Z,22.10
2017-07-03T20:30:23.244Z,22.00
2017-07-03T20:32:50.699Z,21.90
2017-07-03T20:35:18.136Z,21.90
2017-07-03T20:37:45.579Z,21.90
2017-07-03T20:40:13.019Z,21.80
2017-07-03T20:42:40.450Z,21.80
2017-07-03T20:45:07.900Z,21.70
2017-07-03T20:47:35.338Z,21.70
2017-07-03T20:50:02.875Z,21.70
2017-07-03T20:52:30.354Z,21.60
2017-07-03T20:54:57.776Z,21.60
2017-07-03T20:57:25.216Z,21.50
2017-07-03T20:59:52.677Z,21.40
2017-07-03T21:02:20.113Z,21.40
2017-07-03T21:04:47.603Z,21.40
2017-07-03T21:07:15.033Z,21.30
2017-07-03T21:09:43.230Z,21.30
2017-07-03T21:12:11.479Z,21.20
2017-07-03T21:14:38.901Z,21.20
2017-07-03T21:17:06.352Z,21.20
2017-07-03T21:19:33.793Z,21.10
2017-07-03T21:22:01.289Z,21.10
2017-07-03T21:24:28.728Z,21.10
2017-07-03T21:26:56.152Z,21.10
2017-07-03T21:29:23.617Z,21.10
2017-07-03T21:31:51.093Z,21.10
2017-07-03T21:34:19.302Z,21.10
2017-07-03T21:36:46.764Z,21.10
2017-07-03T21:39:14.199Z,21.10
2017-07-03T21:41:41.664Z,21.10
2017-07-03T21:44:09.885Z,21.10
2017-07-03T21:46:37.316Z,21.10
2017-07-03T21:49:04.758Z,21.10
2017-07-03T21:51:32.185Z,21.10
2017-07-03T21:53:59.662Z,21.10
2017-07-03T21:56:27.105Z,21.00
2017-07-03T21:58:54.527Z,21.00
2017-07-03T22:01:21.964Z,21.00
2017-07-03T22:03:49.392Z,21.00
2017-07-03T22:06:16.837Z,20.90
2017-07-03T22:08:44.265Z,20.90
2017-07-03T22:11:12.455Z,20.80
2017-07-03T22:13:39.892Z,20.80
2017-07-03T22:16:07.330Z,20.80
2017-07-03T22:18:34.765Z,20.70
2017-07-03T22:21:02.240Z,20.60
2017-07-03T22:23:29.725Z,20.60
2017-07-03T22:25:57.925Z,20.50
2017-07-03T22:28:25.368Z,20.50
2017-07-03T22:30:52.888Z,20.40
2017-07-03T22:33:20.478Z,20.30
2017-07-03T22:35:47.920Z,20.20
2017-07-03T22:38:15.462Z,20.00
2017-07-03T22:40:42.900Z,19.90
2017-07-03T22:43:10.376Z,19.80
2017-07-03T22:45:37.827Z,19.70
2017-07-03T22:48:05.253Z,19.60
2017-07-03T22:50:32.692Z,19.50
2017-07-03T22:53:00.139Z,19.40
2017-07-03T22:55:27.568Z,19.40
2017-07-03T22:57:55.001Z,19.30
2017-07-03T23:00:22.445Z,19.30
2017-07-03T23:02:49.905Z,19.30
2017-07-03T23:05:17.332Z,19.20
2017-07-03T23:07:44.760Z,19.20
2017-07-03T23:10:12.195Z,19.20
2017-07-03T23:12:39.630Z,19.20
2017-07-03T23:15:07.061Z,19.20
2017-07-03T23:17:35.261Z,19.10
2017-07-03T23:20:02.706Z,19.10
2017-07-03T23:22:30.145Z,19.10
2017-07-03T23:24:57.581Z,19.10
2017-07-03T23:27:25.022Z,19.10
2017-07-03T23:29:52.452Z,19.00
2017-07-03T23:32:19.888Z,19.10
2017-07-03T23:34:47.318Z,19.00
2017-07-03T23:37:14.759Z,19.10
2017-07-03T23:39:43.054Z,19.00
2017-07-03T23:42:10.503Z,19.00
2017-07-03T23:44:37.955Z,19.00
2017-07-03T23:47:05.406Z,19.00
2017-07-03T23:49:32.837Z,18.90
2017-07-03T23:52:00.328Z,18.80
2017-07-03T23:54:28.581Z,18.70
2017-07-03T23:56:56.773Z,18.60
2017-07-03T23:59:24.208Z,18.60
